sensor_id;sensor_type;location;lat;lon;timestamp;pressure;altitude;pressure_sealevel;temperature;humidity
71126;BME280;58785;55.566;38.058;2024-01-15T00:00:17;98360.94;;;-6.39;70.28
71126;BME280;58785;55.566;38.058;2024-01-15T00:02:43;98365.19;;;-6.38;70.51
71126;BME280;58785;55.566;38.058;2024-01-15T00:05:09;98371.22;;;-6.38;70.38
71126;BME280;58785;55.566;38.058;2024-01-15T00:07:35;98368.44;;;-6.34;70.68
71126;BME280;58785;55.566;38.058;2024-01-15T00:10:02;98359.81;;;-6.35;70.83
71126;BME280;58785;55.566;38.058;2024-01-15T00:12:29;98358.81;;;-6.32;70.92
71126;BME280;58785;55.566;38.058;2024-01-15T00:14:55;98354.31;;;-6.29;70.74
71126;BME280;58785;55.566;38.058;2024-01-15T00:17:21;98356.81;;;-6.27;70.61
71126;BME280;58785;55.566;38.058;2024-01-15T00:19:46;98358.47;;;-6.26;70.92
71126;BME280;58785;55.566;38.058;2024-01-15T00:22:12;98341.06;;;-6.24;70.50
71126;BME280;58785;55.566;38.058;2024-01-15T00:24:37;98350.69;;;-6.26;70.65
71126;BME280;58785;55.566;38.058;2024-01-15T00:27:03;98346.34;;;-6.26;71.21
71126;BME280;58785;55.566;38.058;2024-01-15T00:29:29;98339.50;;;-6.27;70.74
71126;BME280;58785;55.566;38.058;2024-01-15T00:31:54;98336.56;;;-6.21;70.60
71126;BME280;58785;55.566;38.058;2024-01-15T00:34:20;98342.41;;;-6.17;70.56
71126;BME280;58785;55.566;38.058;2024-01-15T00:36:46;98333.69;;;-6.16;70.44
71126;BME280;58785;55.566;38.058;2024-01-15T00:39:11;98335.19;;;-6.12;70.66
71126;BME280;58785;55.566;38.058;2024-01-15T00:41:37;98327.59;;;-6.15;70.23
71126;BME280;58785;55.566;38.058;2024-01-15T00:44:03;98327.50;;;-6.14;70.69
71126;BME280;58785;55.566;38.058;2024-01-15T00:46:28;98316.19;;;-6.13;70.95
71126;BME280;58785;55.566;38.058;2024-01-15T00:48:54;98313.59;;;-6.13;71.00
71126;BME280;58785;55.566;38.058;2024-01-15T00:51:20;98315.44;;;-6.15;71.35
71126;BME280;58785;55.566;38.058;2024-01-15T00:53:46;98328.50;;;-6.16;71.01
71126;BME280;58785;55.566;38.058;2024-01-15T00:56:11;98332.28;;;-6.22;70.98
71126;BME280;58785;55.566;38.058;2024-01-15T00:58:38;98318.31;;;-6.19;71.63
71126;BME280;58785;55.566;38.058;2024-01-15T01:01:04;98321.75;;;-6.19;71.19
71126;BME280;58785;55.566;38.058;2024-01-15T01:03:29;98310.44;;;-6.18;71.14
71126;BME280;58785;55.566;38.058;2024-01-15T01:05:55;98317.78;;;-6.10;71.19
71126;BME280;58785;55.566;38.058;2024-01-15T01:08:23;98310.94;;;-6.11;71.12
71126;BME280;58785;55.566;38.058;2024-01-15T01:10:49;98321.03;;;-6.06;71.14
71126;BME280;58785;55.566;38.058;2024-01-15T01:13:14;98317.34;;;-6.02;71.50
71126;BME280;58785;55.566;38.058;2024-01-15T01:15:40;98317.00;;;-5.96;71.29
71126;BME280;58785;55.566;38.058;2024-01-15T01:18:06;98308.03;;;-5.91;70.50
71126;BME280;58785;55.566;38.058;2024-01-15T01:20:31;98308.56;;;-5.86;71.13
71126;BME280;58785;55.566;38.058;2024-01-15T01:22:57;98306.88;;;-5.87;71.20
71126;BME280;58785;55.566;38.058;2024-01-15T01:25:23;98299.28;;;-5.90;70.76
71126;BME280;58785;55.566;38.058;2024-01-15T01:27:48;98289.88;;;-5.91;71.69
71126;BME280;58785;55.566;38.058;2024-01-15T01:30:14;98293.44;;;-5.93;71.37
71126;BME280;58785;55.566;38.058;2024-01-15T01:32:40;98284.09;;;-5.96;71.64
71126;BME280;58785;55.566;38.058;2024-01-15T01:35:06;98282.69;;;-6.01;71.70
71126;BME280;58785;55.566;38.058;2024-01-15T01:37:32;98276.50;;;-5.99;71.27
71126;BME280;58785;55.566;38.058;2024-01-15T01:39:58;98283.34;;;-5.98;71.67
71126;BME280;58785;55.566;38.058;2024-01-15T01:42:23;98270.38;;;-5.98;71.78
71126;BME280;58785;55.566;38.058;2024-01-15T01:44:49;98273.06;;;-5.99;71.69
71126;BME280;58785;55.566;38.058;2024-01-15T01:47:15;98274.91;;;-6.01;71.41
71126;BME280;58785;55.566;38.058;2024-01-15T01:49:41;98274.84;;;-6.00;71.72
71126;BME280;58785;55.566;38.058;2024-01-15T01:52:07;98274.56;;;-5.95;72.13
71126;BME280;58785;55.566;38.058;2024-01-15T01:54:35;98282.97;;;-5.92;72.12
71126;BME280;58785;55.566;38.058;2024-01-15T01:57:02;98275.00;;;-5.89;71.42
71126;BME280;58785;55.566;38.058;2024-01-15T01:59:30;98267.97;;;-5.87;71.25
71126;BME280;58785;55.566;38.058;2024-01-15T02:01:56;98260.72;;;-5.82;71.88
71126;BME280;58785;55.566;38.058;2024-01-15T02:04:24;98259.44;;;-5.74;71.43
71126;BME280;58785;55.566;38.058;2024-01-15T02:06:50;98254.06;;;-5.71;71.52
71126;BME280;58785;55.566;38.058;2024-01-15T02:09:18;98249.78;;;-5.72;71.12
71126;BME280;58785;55.566;38.058;2024-01-15T02:11:46;98261.19;;;-5.75;70.90
71126;BME280;58785;55.566;38.058;2024-01-15T02:14:13;98253.59;;;-5.78;71.13
71126;BME280;58785;55.566;38.058;2024-01-15T02:16:39;98251.28;;;-5.83;71.77
71126;BME280;58785;55.566;38.058;2024-01-15T02:19:04;98244.31;;;-5.82;71.56
71126;BME280;58785;55.566;38.058;2024-01-15T02:21:31;98239.91;;;-5.80;71.67
71126;BME280;58785;55.566;38.058;2024-01-15T02:24:06;98238.97;;;-5.79;72.27
71126;BME280;58785;55.566;38.058;2024-01-15T02:26:32;98239.34;;;-5.71;72.12
71126;BME280;58785;55.566;38.058;2024-01-15T02:29:02;98234.06;;;-5.69;71.35
71126;BME280;58785;55.566;38.058;2024-01-15T02:31:28;98233.28;;;-5.71;71.55
71126;BME280;58785;55.566;38.058;2024-01-15T02:33:53;98239.41;;;-5.72;71.67
71126;BME280;58785;55.566;38.058;2024-01-15T02:36:19;98239.59;;;-5.75;71.95
71126;BME280;58785;55.566;38.058;2024-01-15T02:38:45;98242.41;;;-5.79;72.16
71126;BME280;58785;55.566;38.058;2024-01-15T02:41:10;98237.84;;;-5.75;72.05
71126;BME280;58785;55.566;38.058;2024-01-15T02:43:39;98237.59;;;-5.70;71.59
71126;BME280;58785;55.566;38.058;2024-01-15T02:46:05;98244.78;;;-5.61;71.88
71126;BME280;58785;55.566;38.058;2024-01-15T02:48:31;98233.41;;;-5.59;72.28
71126;BME280;58785;55.566;38.058;2024-01-15T02:50:58;98239.97;;;-5.53;71.57
71126;BME280;58785;55.566;38.058;2024-01-15T02:53:23;98241.56;;;-5.51;71.88
71126;BME280;58785;55.566;38.058;2024-01-15T02:55:49;98240.34;;;-5.45;72.05
71126;BME280;58785;55.566;38.058;2024-01-15T02:58:14;98239.16;;;-5.39;72.41
71126;BME280;58785;55.566;38.058;2024-01-15T03:00:40;98233.66;;;-5.35;72.52
71126;BME280;58785;55.566;38.058;2024-01-15T03:03:06;98231.78;;;-5.33;72.53
71126;BME280;58785;55.566;38.058;2024-01-15T03:05:32;98230.78;;;-5.30;72.90
71126;BME280;58785;55.566;38.058;2024-01-15T03:07:57;98225.50;;;-5.29;72.84
71126;BME280;58785;55.566;38.058;2024-01-15T03:10:23;98235.88;;;-5.29;72.99
71126;BME280;58785;55.566;38.058;2024-01-15T03:12:49;98216.66;;;-5.26;72.99
71126;BME280;58785;55.566;38.058;2024-01-15T03:15:14;98215.38;;;-5.19;72.73
71126;BME280;58785;55.566;38.058;2024-01-15T03:17:41;98216.94;;;-5.16;72.11
71126;BME280;58785;55.566;38.058;2024-01-15T03:20:08;98211.53;;;-5.13;72.20
71126;BME280;58785;55.566;38.058;2024-01-15T03:22:34;98207.16;;;-5.13;72.65
71126;BME280;58785;55.566;38.058;2024-01-15T03:25:00;98194.59;;;-5.19;72.92
71126;BME280;58785;55.566;38.058;2024-01-15T03:27:25;98208.56;;;-5.07;73.03
71126;BME280;58785;55.566;38.058;2024-01-15T03:29:51;98208.56;;;-5.07;73.02
71126;BME280;58785;55.566;38.058;2024-01-15T03:32:17;98210.44;;;-5.09;72.37
71126;BME280;58785;55.566;38.058;2024-01-15T03:34:43;98206.59;;;-5.04;73.08
71126;BME280;58785;55.566;38.058;2024-01-15T03:37:09;98207.53;;;-5.05;73.22
71126;BME280;58785;55.566;38.058;2024-01-15T03:39:34;98203.88;;;-5.02;73.12
71126;BME280;58785;55.566;38.058;2024-01-15T03:42:00;98216.72;;;-4.99;73.09
71126;BME280;58785;55.566;38.058;2024-01-15T03:44:25;98216.28;;;-4.93;72.81
71126;BME280;58785;55.566;38.058;2024-01-15T03:46:51;98205.81;;;-4.92;72.89
71126;BME280;58785;55.566;38.058;2024-01-15T03:49:17;98198.09;;;-4.93;73.37
71126;BME280;58785;55.566;38.058;2024-01-15T03:51:42;98213.53;;;-4.90;72.96
71126;BME280;58785;55.566;38.058;2024-01-15T03:54:08;98199.78;;;-4.92;72.99
71126;BME280;58785;55.566;38.058;2024-01-15T03:56:34;98204.91;;;-4.90;73.10
71126;BME280;58785;55.566;38.058;2024-01-15T03:59:00;98209.69;;;-4.84;73.22
71126;BME280;58785;55.566;38.058;2024-01-15T04:01:25;98207.63;;;-4.79;73.12
71126;BME280;58785;55.566;38.058;2024-01-15T04:03:51;98200.84;;;-4.82;73.24
71126;BME280;58785;55.566;38.058;2024-01-15T04:06:17;98204.47;;;-4.84;73.08
71126;BME280;58785;55.566;38.058;2024-01-15T04:08:42;98201.38;;;-4.89;73.29
71126;BME280;58785;55.566;38.058;2024-01-15T04:11:08;98197.25;;;-4.79;73.23
71126;BME280;58785;55.566;38.058;2024-01-15T04:13:33;98185.47;;;-4.85;73.02
71126;BME280;58785;55.566;38.058;2024-01-15T04:16:00;98195.25;;;-4.76;73.54
71126;BME280;58785;55.566;38.058;2024-01-15T04:18:25;98197.75;;;-4.74;73.04
71126;BME280;58785;55.566;38.058;2024-01-15T04:20:51;98187.47;;;-4.76;73.23
71126;BME280;58785;55.566;38.058;2024-01-15T04:23:17;98189.84;;;-4.73;72.91
71126;BME280;58785;55.566;38.058;2024-01-15T04:25:42;98191.34;;;-4.69;72.83
71126;BME280;58785;55.566;38.058;2024-01-15T04:28:09;98183.66;;;-4.70;73.26
71126;BME280;58785;55.566;38.058;2024-01-15T04:30:34;98187.69;;;-4.66;72.87
71126;BME280;58785;55.566;38.058;2024-01-15T04:33:00;98189.16;;;-4.62;73.03
71126;BME280;58785;55.566;38.058;2024-01-15T04:35:26;98185.53;;;-4.59;73.10
71126;BME280;58785;55.566;38.058;2024-01-15T04:37:52;98188.88;;;-4.57;73.25
71126;BME280;58785;55.566;38.058;2024-01-15T04:40:17;98185.84;;;-4.51;72.27
71126;BME280;58785;55.566;38.058;2024-01-15T04:42:43;98184.13;;;-4.51;73.65
71126;BME280;58785;55.566;38.058;2024-01-15T04:45:11;98180.84;;;-4.54;73.11
71126;BME280;58785;55.566;38.058;2024-01-15T04:47:37;98181.31;;;-4.48;73.30
71126;BME280;58785;55.566;38.058;2024-01-15T04:50:04;98184.53;;;-4.44;73.91
71126;BME280;58785;55.566;38.058;2024-01-15T04:52:30;98175.50;;;-4.39;73.18
71126;BME280;58785;55.566;38.058;2024-01-15T04:54:55;98182.34;;;-4.38;73.35
71126;BME280;58785;55.566;38.058;2024-01-15T04:57:21;98183.81;;;-4.34;73.96
71126;BME280;58785;55.566;38.058;2024-01-15T04:59:47;98182.75;;;-4.31;73.22
71126;BME280;58785;55.566;38.058;2024-01-15T05:02:13;98187.88;;;-4.29;73.44
71126;BME280;58785;55.566;38.058;2024-01-15T05:04:38;98183.19;;;-4.24;73.09
71126;BME280;58785;55.566;38.058;2024-01-15T05:07:05;98188.09;;;-4.20;73.64
71126;BME280;58785;55.566;38.058;2024-01-15T05:09:30;98182.69;;;-4.17;73.48
71126;BME280;58785;55.566;38.058;2024-01-15T05:11:56;98184.25;;;-4.14;73.83
71126;BME280;58785;55.566;38.058;2024-01-15T05:14:22;98181.44;;;-4.11;73.53
71126;BME280;58785;55.566;38.058;2024-01-15T05:16:48;98173.63;;;-4.11;73.71
71126;BME280;58785;55.566;38.058;2024-01-15T05:19:15;98175.94;;;-4.07;73.71
71126;BME280;58785;55.566;38.058;2024-01-15T05:21:40;98176.75;;;-4.06;73.72
71126;BME280;58785;55.566;38.058;2024-01-15T05:24:08;98179.03;;;-4.01;73.76
71126;BME280;58785;55.566;38.058;2024-01-15T05:26:33;98178.19;;;-4.02;73.85
71126;BME280;58785;55.566;38.058;2024-01-15T05:28:59;98168.94;;;-4.06;74.13
71126;BME280;58785;55.566;38.058;2024-01-15T05:31:25;98184.25;;;-4.01;73.78
71126;BME280;58785;55.566;38.058;2024-01-15T05:33:50;98170.31;;;-4.00;73.93
71126;BME280;58785;55.566;38.058;2024-01-15T05:36:16;98169.47;;;-4.01;74.20
71126;BME280;58785;55.566;38.058;2024-01-15T05:38:42;98184.78;;;-3.96;73.94
71126;BME280;58785;55.566;38.058;2024-01-15T05:41:07;98168.09;;;-3.94;74.14
71126;BME280;58785;55.566;38.058;2024-01-15T05:43:33;98162.59;;;-3.89;73.76
71126;BME280;58785;55.566;38.058;2024-01-15T05:45:58;98172.25;;;-3.91;74.30
71126;BME280;58785;55.566;38.058;2024-01-15T05:48:24;98176.44;;;-3.89;75.20
71126;BME280;58785;55.566;38.058;2024-01-15T05:50:49;98171.03;;;-3.86;74.16
71126;BME280;58785;55.566;38.058;2024-01-15T05:53:15;98172.38;;;-3.80;73.76
71126;BME280;58785;55.566;38.058;2024-01-15T05:55:41;98177.50;;;-3.79;74.03
71126;BME280;58785;55.566;38.058;2024-01-15T05:58:06;98171.94;;;-3.74;74.25
71126;BME280;58785;55.566;38.058;2024-01-15T06:00:32;98167.25;;;-3.69;74.01
71126;BME280;58785;55.566;38.058;2024-01-15T06:03:01;98178.06;;;-3.62;74.30
71126;BME280;58785;55.566;38.058;2024-01-15T06:05:27;98170.16;;;-3.61;74.38
71126;BME280;58785;55.566;38.058;2024-01-15T06:07:53;98166.00;;;-3.63;74.00
71126;BME280;58785;55.566;38.058;2024-01-15T06:10:18;98162.44;;;-3.62;74.36
71126;BME280;58785;55.566;38.058;2024-01-15T06:12:44;98175.16;;;-3.58;74.10
71126;BME280;58785;55.566;38.058;2024-01-15T06:15:10;98168.19;;;-3.57;74.01
71126;BME280;58785;55.566;38.058;2024-01-15T06:17:36;98168.91;;;-3.55;74.29
71126;BME280;58785;55.566;38.058;2024-01-15T06:20:02;98159.09;;;-3.52;74.18
71126;BME280;58785;55.566;38.058;2024-01-15T06:22:29;98168.97;;;-3.44;74.06
71126;BME280;58785;55.566;38.058;2024-01-15T06:24:54;98167.09;;;-3.42;74.40
71126;BME280;58785;55.566;38.058;2024-01-15T06:27:21;98173.78;;;-3.38;73.89
71126;BME280;58785;55.566;38.058;2024-01-15T06:29:47;98165.59;;;-3.33;74.58
71126;BME280;58785;55.566;38.058;2024-01-15T06:32:13;98170.41;;;-3.27;73.85
71126;BME280;58785;55.566;38.058;2024-01-15T06:34:39;98170.47;;;-3.16;73.43
71126;BME280;58785;55.566;38.058;2024-01-15T06:37:05;98165.75;;;-3.11;74.07
71126;BME280;58785;55.566;38.058;2024-01-15T06:39:30;98173.38;;;-3.08;73.68
71126;BME280;58785;55.566;38.058;2024-01-15T06:41:56;98177.41;;;-3.04;73.93
71126;BME280;58785;55.566;38.058;2024-01-15T06:44:21;98183.00;;;-2.97;73.93
71126;BME280;58785;55.566;38.058;2024-01-15T06:46:47;98175.47;;;-2.89;73.26
71126;BME280;58785;55.566;38.058;2024-01-15T06:49:13;98175.97;;;-2.84;73.82
71126;BME280;58785;55.566;38.058;2024-01-15T06:51:39;98180.94;;;-2.81;73.58
71126;BME280;58785;55.566;38.058;2024-01-15T06:54:05;98178.97;;;-2.77;73.34
71126;BME280;58785;55.566;38.058;2024-01-15T06:56:31;98176.94;;;-2.74;73.57
71126;BME280;58785;55.566;38.058;2024-01-15T06:58:58;98189.16;;;-2.74;74.00
71126;BME280;58785;55.566;38.058;2024-01-15T07:01:24;98185.50;;;-2.72;73.23
71126;BME280;58785;55.566;38.058;2024-01-15T07:03:50;98184.47;;;-2.69;73.68
71126;BME280;58785;55.566;38.058;2024-01-15T07:06:15;98175.13;;;-2.61;73.75
71126;BME280;58785;55.566;38.058;2024-01-15T07:08:42;98176.56;;;-2.56;73.29
71126;BME280;58785;55.566;38.058;2024-01-15T07:11:08;98180.72;;;-2.54;73.39
71126;BME280;58785;55.566;38.058;2024-01-15T07:13:36;98174.34;;;-2.50;73.81
71126;BME280;58785;55.566;38.058;2024-01-15T07:16:03;98176.59;;;-2.45;73.35
71126;BME280;58785;55.566;38.058;2024-01-15T07:18:28;98167.81;;;-2.44;73.49
71126;BME280;58785;55.566;38.058;2024-01-15T07:20:54;98171.25;;;-2.44;73.86
71126;BME280;58785;55.566;38.058;2024-01-15T07:23:20;98168.31;;;-2.39;73.26
71126;BME280;58785;55.566;38.058;2024-01-15T07:25:45;98167.38;;;-2.38;73.50
71126;BME280;58785;55.566;38.058;2024-01-15T07:28:12;98169.34;;;-2.42;73.72
71126;BME280;58785;55.566;38.058;2024-01-15T07:30:37;98165.22;;;-2.44;73.86
71126;BME280;58785;55.566;38.058;2024-01-15T07:33:05;98169.50;;;-2.32;73.74
71126;BME280;58785;55.566;38.058;2024-01-15T07:35:31;98173.44;;;-2.26;73.74
71126;BME280;58785;55.566;38.058;2024-01-15T07:37:57;98176.66;;;-2.23;73.66
71126;BME280;58785;55.566;38.058;2024-01-15T07:40:23;98159.22;;;-2.22;73.88
71126;BME280;58785;55.566;38.058;2024-01-15T07:42:51;98174.66;;;-2.19;73.89
71126;BME280;58785;55.566;38.058;2024-01-15T07:45:16;98168.84;;;-2.12;73.58
71126;BME280;58785;55.566;38.058;2024-01-15T07:47:42;98170.03;;;-2.05;72.87
71126;BME280;58785;55.566;38.058;2024-01-15T07:50:08;98168.03;;;-2.01;73.70
71126;BME280;58785;55.566;38.058;2024-01-15T07:52:34;98159.34;;;-2.02;72.90
71126;BME280;58785;55.566;38.058;2024-01-15T07:55:00;98167.44;;;-1.93;73.38
71126;BME280;58785;55.566;38.058;2024-01-15T07:57:26;98164.38;;;-1.87;73.88
71126;BME280;58785;55.566;38.058;2024-01-15T07:59:52;98167.44;;;-1.82;73.50
71126;BME280;58785;55.566;38.058;2024-01-15T08:02:17;98169.59;;;-1.76;72.97
71126;BME280;58785;55.566;38.058;2024-01-15T08:04:43;98156.28;;;-1.73;72.90
71126;BME280;58785;55.566;38.058;2024-01-15T08:07:09;98160.56;;;-1.61;72.55
71126;BME280;58785;55.566;38.058;2024-01-15T08:09:35;98168.88;;;-1.56;72.76
71126;BME280;58785;55.566;38.058;2024-01-15T08:12:00;98164.84;;;-1.49;72.47
71126;BME280;58785;55.566;38.058;2024-01-15T08:14:26;98165.69;;;-1.48;72.63
71126;BME280;58785;55.566;38.058;2024-01-15T08:16:52;98169.84;;;-1.46;72.60
71126;BME280;58785;55.566;38.058;2024-01-15T08:19:18;98164.84;;;-1.37;72.04
71126;BME280;58785;55.566;38.058;2024-01-15T08:21:45;98165.28;;;-1.32;72.13
71126;BME280;58785;55.566;38.058;2024-01-15T08:24:11;98164.00;;;-1.27;71.85
71126;BME280;58785;55.566;38.058;2024-01-15T08:26:36;98168.72;;;-1.21;72.40
71126;BME280;58785;55.566;38.058;2024-01-15T08:29:02;98151.72;;;-1.15;71.91
71126;BME280;58785;55.566;38.058;2024-01-15T08:31:27;98169.19;;;-1.16;72.45
71126;BME280;58785;55.566;38.058;2024-01-15T08:33:53;98151.50;;;-1.23;72.29
71126;BME280;58785;55.566;38.058;2024-01-15T08:36:19;98172.53;;;-1.13;72.18
71126;BME280;58785;55.566;38.058;2024-01-15T08:38:44;98168.00;;;-1.11;72.07
71126;BME280;58785;55.566;38.058;2024-01-15T08:41:10;98158.16;;;-1.19;72.27
71126;BME280;58785;55.566;38.058;2024-01-15T08:43:36;98171.34;;;-1.09;72.48
71126;BME280;58785;55.566;38.058;2024-01-15T08:46:02;98169.41;;;-0.96;71.97
71126;BME280;58785;55.566;38.058;2024-01-15T08:48:28;98172.94;;;-0.86;71.79
71126;BME280;58785;55.566;38.058;2024-01-15T08:50:54;98177.31;;;-0.75;71.38
71126;BME280;58785;55.566;38.058;2024-01-15T08:53:20;98166.34;;;-0.69;71.60
71126;BME280;58785;55.566;38.058;2024-01-15T08:55:47;98170.03;;;-0.72;71.56
71126;BME280;58785;55.566;38.058;2024-01-15T08:58:13;98165.03;;;-0.75;71.23
71126;BME280;58785;55.566;38.058;2024-01-15T09:00:39;98160.50;;;-0.73;71.53
71126;BME280;58785;55.566;38.058;2024-01-15T09:03:05;98166.56;;;-0.72;71.29
71126;BME280;58785;55.566;38.058;2024-01-15T09:05:32;98165.38;;;-0.68;71.47
71126;BME280;58785;55.566;38.058;2024-01-15T09:07:57;98166.44;;;-0.71;71.66
71126;BME280;58785;55.566;38.058;2024-01-15T09:10:23;98167.66;;;-0.75;71.82
71126;BME280;58785;55.566;38.058;2024-01-15T09:12:49;98172.75;;;-0.73;71.43
71126;BME280;58785;55.566;38.058;2024-01-15T09:15:15;98181.31;;;-0.60;71.19
71126;BME280;58785;55.566;38.058;2024-01-15T09:17:41;98179.34;;;-0.47;71.22
71126;BME280;58785;55.566;38.058;2024-01-15T09:20:07;98181.19;;;-0.38;70.50
71126;BME280;58785;55.566;38.058;2024-01-15T09:22:33;98176.47;;;-0.23;70.41
71126;BME280;58785;55.566;38.058;2024-01-15T09:24:59;98169.78;;;-0.16;70.20
71126;BME280;58785;55.566;38.058;2024-01-15T09:27:25;98169.06;;;-0.18;70.20
71126;BME280;58785;55.566;38.058;2024-01-15T09:29:54;98167.72;;;-0.12;70.36
71126;BME280;58785;55.566;38.058;2024-01-15T09:32:19;98168.31;;;-0.09;70.00
71126;BME280;58785;55.566;38.058;2024-01-15T09:34:46;98163.16;;;-0.10;70.00
71126;BME280;58785;55.566;38.058;2024-01-15T09:37:13;98164.84;;;-0.09;70.18
71126;BME280;58785;55.566;38.058;2024-01-15T09:39:39;98158.91;;;-0.11;69.82
71126;BME280;58785;55.566;38.058;2024-01-15T09:42:05;98161.59;;;-0.22;70.07
71126;BME280;58785;55.566;38.058;2024-01-15T09:44:31;98168.03;;;-0.26;70.16
71126;BME280;58785;55.566;38.058;2024-01-15T09:46:57;98162.88;;;-0.17;69.88
71126;BME280;58785;55.566;38.058;2024-01-15T09:49:23;98172.19;;;-0.03;69.44
71126;BME280;58785;55.566;38.058;2024-01-15T09:51:49;98171.88;;;0.11;69.57
71126;BME280;58785;55.566;38.058;2024-01-15T09:54:16;98168.94;;;0.35;69.12
71126;BME280;58785;55.566;38.058;2024-01-15T09:56:46;98171.34;;;0.48;68.58
71126;BME280;58785;55.566;38.058;2024-01-15T09:59:16;98170.34;;;0.39;68.90
71126;BME280;58785;55.566;38.058;2024-01-15T10:01:47;98171.09;;;0.20;69.25
71126;BME280;58785;55.566;38.058;2024-01-15T10:04:14;98175.00;;;0.05;69.79
71126;BME280;58785;55.566;38.058;2024-01-15T10:06:45;98178.13;;;-0.01;69.81
71126;BME280;58785;55.566;38.058;2024-01-15T10:09:14;98172.72;;;-0.09;69.75
71126;BME280;58785;55.566;38.058;2024-01-15T10:11:44;98178.06;;;-0.11;70.25
71126;BME280;58785;55.566;38.058;2024-01-15T10:14:11;98180.81;;;-0.12;70.26
71126;BME280;58785;55.566;38.058;2024-01-15T10:16:43;98181.06;;;-0.15;69.94
71126;BME280;58785;55.566;38.058;2024-01-15T10:19:09;98173.09;;;-0.14;70.26
71126;BME280;58785;55.566;38.058;2024-01-15T10:21:36;98173.09;;;-0.14;70.03
71126;BME280;58785;55.566;38.058;2024-01-15T10:24:03;98166.06;;;-0.13;70.37
71126;BME280;58785;55.566;38.058;2024-01-15T10:26:29;98175.34;;;-0.09;70.39
71126;BME280;58785;55.566;38.058;2024-01-15T10:28:55;98171.56;;;0.05;70.02
71126;BME280;58785;55.566;38.058;2024-01-15T10:31:21;98155.75;;;0.16;69.83
71126;BME280;58785;55.566;38.058;2024-01-15T10:33:48;98177.69;;;0.15;69.92
71126;BME280;58785;55.566;38.058;2024-01-15T10:36:15;98171.00;;;0.01;70.06
71126;BME280;58785;55.566;38.058;2024-01-15T10:38:43;98174.81;;;-0.03;69.98
71126;BME280;58785;55.566;38.058;2024-01-15T10:41:09;98162.16;;;0.02;70.14
71126;BME280;58785;55.566;38.058;2024-01-15T10:43:35;98159.41;;;0.04;70.13
71126;BME280;58785;55.566;38.058;2024-01-15T10:46:01;98164.84;;;0.12;69.92
71126;BME280;58785;55.566;38.058;2024-01-15T10:48:27;98170.38;;;0.18;69.94
71126;BME280;58785;55.566;38.058;2024-01-15T10:50:54;98161.00;;;0.16;69.96
71126;BME280;58785;55.566;38.058;2024-01-15T10:53:21;98163.47;;;0.17;69.95
71126;BME280;58785;55.566;38.058;2024-01-15T10:55:48;98159.66;;;0.21;69.99
71126;BME280;58785;55.566;38.058;2024-01-15T10:58:15;98160.63;;;0.20;69.54
71126;BME280;58785;55.566;38.058;2024-01-15T11:00:43;98160.16;;;0.15;69.83
71126;BME280;58785;55.566;38.058;2024-01-15T11:03:10;98144.25;;;0.07;70.12
71126;BME280;58785;55.566;38.058;2024-01-15T11:05:41;98156.59;;;-0.05;70.50
71126;BME280;58785;55.566;38.058;2024-01-15T11:08:08;98166.53;;;-0.08;70.50
71126;BME280;58785;55.566;38.058;2024-01-15T11:10:48;98153.09;;;-0.15;70.43
71126;BME280;58785;55.566;38.058;2024-01-15T11:16:03;98140.44;;;-0.31;71.01
71126;BME280;58785;55.566;38.058;2024-01-15T11:18:40;98136.50;;;-0.46;71.64
71126;BME280;58785;55.566;38.058;2024-01-15T11:26:35;98141.03;;;-0.27;70.58
71126;BME280;58785;55.566;38.058;2024-01-15T11:29:06;98149.16;;;-0.30;70.82
71126;BME280;58785;55.566;38.058;2024-01-15T11:34:08;98139.56;;;-0.20;70.79
71126;BME280;58785;55.566;38.058;2024-01-15T11:37:03;98139.44;;;-0.18;70.69
71126;BME280;58785;55.566;38.058;2024-01-15T11:42:02;98131.25;;;-0.25;71.07
71126;BME280;58785;55.566;38.058;2024-01-15T11:44:29;98138.41;;;-0.27;70.73
71126;BME280;58785;55.566;38.058;2024-01-15T11:47:02;98132.78;;;-0.22;70.85
71126;BME280;58785;55.566;38.058;2024-01-15T11:49:49;98136.63;;;-0.26;71.26
71126;BME280;58785;55.566;38.058;2024-01-15T11:52:22;98136.88;;;-0.30;71.13
71126;BME280;58785;55.566;38.058;2024-01-15T11:55:16;98135.59;;;-0.35;71.77
71126;BME280;58785;55.566;38.058;2024-01-15T11:57:50;98139.69;;;-0.42;71.70
71126;BME280;58785;55.566;38.058;2024-01-15T12:00:17;98134.84;;;-0.47;71.91
71126;BME280;58785;55.566;38.058;2024-01-15T12:02:44;98133.41;;;-0.51;71.88
71126;BME280;58785;55.566;38.058;2024-01-15T12:05:12;98134.50;;;-0.53;72.38
71126;BME280;58785;55.566;38.058;2024-01-15T12:07:41;98136.69;;;-0.59;72.49
71126;BME280;58785;55.566;38.058;2024-01-15T12:10:18;98142.75;;;-0.58;72.33
71126;BME280;58785;55.566;38.058;2024-01-15T12:13:00;98142.75;;;-0.58;72.54
71126;BME280;58785;55.566;38.058;2024-01-15T12:15:28;98150.13;;;-0.63;72.60
71126;BME280;58785;55.566;38.058;2024-01-15T12:17:55;98146.56;;;-0.62;72.44
71126;BME280;58785;55.566;38.058;2024-01-15T12:20:24;98153.44;;;-0.61;72.84
71126;BME280;58785;55.566;38.058;2024-01-15T12:22:49;98150.13;;;-0.63;72.68
71126;BME280;58785;55.566;38.058;2024-01-15T12:25:15;98147.91;;;-0.68;73.17
71126;BME280;58785;55.566;38.058;2024-01-15T12:27:41;98142.41;;;-0.65;72.95
71126;BME280;58785;55.566;38.058;2024-01-15T12:30:07;98150.00;;;-0.62;72.50
71126;BME280;58785;55.566;38.058;2024-01-15T12:32:35;98140.75;;;-0.66;73.18
71126;BME280;58785;55.566;38.058;2024-01-15T12:35:01;98144.31;;;-0.67;72.69
71126;BME280;58785;55.566;38.058;2024-01-15T12:37:27;98142.53;;;-0.66;73.14
71126;BME280;58785;55.566;38.058;2024-01-15T12:39:52;98137.44;;;-0.68;72.56
71126;BME280;58785;55.566;38.058;2024-01-15T12:42:21;98140.94;;;-0.78;73.66
71126;BME280;58785;55.566;38.058;2024-01-15T12:44:47;98151.75;;;-0.83;73.61
71126;BME280;58785;55.566;38.058;2024-01-15T12:47:13;98159.72;;;-0.84;73.62
71126;BME280;58785;55.566;38.058;2024-01-15T12:49:39;98147.88;;;-0.89;73.59
71126;BME280;58785;55.566;38.058;2024-01-15T12:52:08;98150.47;;;-0.89;73.44
71126;BME280;58785;55.566;38.058;2024-01-15T12:54:34;98149.03;;;-0.93;73.73
71126;BME280;58785;55.566;38.058;2024-01-15T12:57:00;98146.56;;;-0.94;74.04
71126;BME280;58785;55.566;38.058;2024-01-15T12:59:26;98145.03;;;-0.97;73.82